createdAt,value
2019-02-21T14:29:12.501Z,59.13
2019-02-21T14:31:38.818Z,60.20
2019-02-21T14:34:05.137Z,62.78
2019-02-21T14:36:31.522Z,58.85
2019-02-21T14:38:57.828Z,58.78
2019-02-21T14:41:24.161Z,67.27
2019-02-21T14:43:50.628Z,61.15
2019-02-21T14:46:16.942Z,64.72
2019-02-21T14:48:43.307Z,67.50
2019-02-21T14:51:09.686Z,74.22
2019-02-21T14:53:36.034Z,67.10
2019-02-21T14:56:02.359Z,65.25
2019-02-21T14:58:28.739Z,60.15
2019-02-21T15:00:55.113Z,68.17
2019-02-21T15:03:22.415Z,64.60
2019-02-21T15:05:49.006Z,66.40
2019-02-21T15:08:18.092Z,78.20
2019-02-21T15:10:44.395Z,70.00
2019-02-21T15:13:10.825Z,66.47
2019-02-21T15:15:37.124Z,71.22
2019-02-21T15:18:07.523Z,72.80
2019-02-21T15:20:36.920Z,64.77
2019-02-21T15:22:59.918Z,60.75
2019-02-21T15:25:26.242Z,67.47
2019-02-21T15:27:52.634Z,72.75
2019-02-21T15:30:24.192Z,74.53
2019-02-21T15:32:50.493Z,64.95
2019-02-21T15:35:19.254Z,72.03
2019-02-21T15:37:45.325Z,70.70
2019-02-21T15:40:11.723Z,73.60
2019-02-21T15:42:38.092Z,74.35
2019-02-21T15:45:23.087Z,68.75
2019-02-21T15:47:45.291Z,80.57
2019-02-21T15:50:13.045Z,75.78
2019-02-21T15:52:39.396Z,77.32
2019-02-21T15:55:12.377Z,75.25
2019-02-21T15:57:36.727Z,78.47
2019-02-21T16:00:09.220Z,74.58
2019-02-21T16:02:35.566Z,73.35
2019-02-21T16:05:02.004Z,66.33
2019-02-21T16:07:28.295Z,68.00
2019-02-21T16:09:54.588Z,73.17
2019-02-21T16:12:21.193Z,65.12
2019-02-21T16:14:47.805Z,66.70
2019-02-21T16:17:14.105Z,66.85
2019-02-21T16:19:40.496Z,69.87
2019-02-21T16:22:06.801Z,66.22
2019-02-21T16:24:33.167Z,63.85
2019-02-21T16:26:59.563Z,64.70
2019-02-21T16:29:26.115Z,60.63
2019-02-21T16:31:52.444Z,58.92
2019-02-21T16:34:18.814Z,61.70
2019-02-21T16:36:45.143Z,64.30
2019-02-21T16:39:11.471Z,68.95
2019-02-21T16:41:37.854Z,69.20
2019-02-21T16:44:04.179Z,77.67
2019-02-21T16:46:30.479Z,76.87
2019-02-21T16:48:56.982Z,72.03
2019-02-21T16:51:23.379Z,77.32
2019-02-21T16:53:49.703Z,75.87
2019-02-21T16:56:16.094Z,81.72
2019-02-21T16:58:42.882Z,79.70
2019-02-21T17:01:09.511Z,94.77
2019-02-21T17:03:35.936Z,99.52
2019-02-21T17:06:03.554Z,96.40
2019-02-21T17:08:30.139Z,108.57
2019-02-21T17:10:56.539Z,101.15
2019-02-21T17:13:22.843Z,91.55
2019-02-21T17:15:49.176Z,102.78
2019-02-21T17:18:15.564Z,99.50
2019-02-21T17:20:41.864Z,109.32
2019-02-21T17:23:08.224Z,109.05
2019-02-21T17:25:34.649Z,99.45
2019-02-21T17:28:01.093Z,120.85
2019-02-21T17:30:27.511Z,104.50
2019-02-21T17:32:53.949Z,111.52
2019-02-21T17:35:20.486Z,104.03
2019-02-21T17:37:46.807Z,104.12
2019-02-21T17:40:15.573Z,101.55
2019-02-21T17:42:41.929Z,109.05
2019-02-21T17:45:09.080Z,104.32
2019-02-21T17:47:35.610Z,107.97
2019-02-21T17:50:02.047Z,109.57
2019-02-21T17:52:28.481Z,114.75
2019-02-21T17:54:54.906Z,112.00
2019-02-21T17:57:21.235Z,112.92
2019-02-21T17:59:47.674Z,115.88
2019-02-21T18:02:14.201Z,112.85
2019-02-21T18:04:40.652Z,111.57
2019-02-21T18:07:06.978Z,117.90
2019-02-21T18:09:33.396Z,112.45
2019-02-21T18:11:59.728Z,121.65
2019-02-21T18:14:26.164Z,115.45
2019-02-21T18:16:52.689Z,106.85
2019-02-21T18:19:18.996Z,110.55
2019-02-21T18:21:45.296Z,109.80
2019-02-21T18:24:11.679Z,109.17
2019-02-21T18:26:38.119Z,110.00
2019-02-21T18:29:04.553Z,114.05
2019-02-21T18:31:30.985Z,117.93
2019-02-21T18:33:57.306Z,105.37
2019-02-21T18:36:23.613Z,118.93
2019-02-21T18:38:50.006Z,106.10
2019-02-21T18:41:16.399Z,116.08
2019-02-21T18:43:42.739Z,115.40
2019-02-21T18:46:09.125Z,116.28
2019-02-21T18:48:35.440Z,121.00
2019-02-21T18:51:01.764Z,105.47
2019-02-21T18:53:28.214Z,107.10
2019-02-21T18:55:54.533Z,113.42
2019-02-21T18:58:20.917Z,110.08
2019-02-21T19:00:47.311Z,104.12
2019-02-21T19:03:13.658Z,101.75
2019-02-21T19:05:40.042Z,112.25
2019-02-21T19:08:06.444Z,100.62
2019-02-21T19:10:32.818Z,106.60
2019-02-21T19:12:59.174Z,98.17
2019-02-21T19:15:26.255Z,103.50
2019-02-21T19:17:52.576Z,98.12
2019-02-21T19:20:20.207Z,104.23
2019-02-21T19:22:46.702Z,96.63
2019-02-21T19:25:13.013Z,117.00
2019-02-21T19:27:39.324Z,110.20
2019-02-21T19:30:09.325Z,107.78
2019-02-21T19:32:35.682Z,118.25
2019-02-21T19:35:02.115Z,115.17
2019-02-21T19:37:28.649Z,110.17
2019-02-21T19:39:55.188Z,125.75
2019-02-21T19:42:21.606Z,126.42
2019-02-21T19:44:48.051Z,126.22
2019-02-21T19:47:14.479Z,140.15
2019-02-21T19:49:40.804Z,165.60
2019-02-21T19:52:07.235Z,152.70
2019-02-21T19:54:33.679Z,159.87
2019-02-21T19:57:34.891Z,214.30
2019-02-21T20:00:01.684Z,188.32
2019-02-21T20:02:29.801Z,189.70
2019-02-21T20:04:56.491Z,210.17
2019-02-21T20:07:24.358Z,205.87
2019-02-21T20:09:51.090Z,209.32
2019-02-21T20:12:17.791Z,215.35
2019-02-21T20:14:44.519Z,212.63
2019-02-21T20:17:11.131Z,213.75
2019-02-21T20:19:37.806Z,208.17
2019-02-21T20:22:04.483Z,226.55
2019-02-21T20:24:31.195Z,221.55
2019-02-21T20:27:00.252Z,212.23
2019-02-21T20:29:26.636Z,209.90
2019-02-21T20:31:53.346Z,227.05
2019-02-21T20:34:19.978Z,221.68
2019-02-21T20:36:51.050Z,217.87
2019-02-21T20:39:15.237Z,218.90
2019-02-21T20:41:41.888Z,222.40
2019-02-21T20:44:08.698Z,209.37
2019-02-21T20:46:35.327Z,198.87
2019-02-21T20:49:01.981Z,188.93
2019-02-21T20:51:29.708Z,176.80
2019-02-21T20:53:56.307Z,168.37
2019-02-21T20:56:22.979Z,175.50
2019-02-21T20:58:49.658Z,174.97
2019-02-21T21:01:16.279Z,171.18
2019-02-21T21:03:43.000Z,172.30
2019-02-21T21:06:09.691Z,170.62
2019-02-21T21:08:43.260Z,176.18
2019-02-21T21:11:05.019Z,174.12
2019-02-21T21:13:31.756Z,175.12
2019-02-21T21:15:58.343Z,174.62
2019-02-21T21:18:25.027Z,160.90
2019-02-21T21:20:51.712Z,158.93
2019-02-21T21:23:18.399Z,163.32
2019-02-21T21:25:45.123Z,174.65
2019-02-21T21:28:11.839Z,161.18
2019-02-21T21:30:38.487Z,162.62
2019-02-21T21:33:05.166Z,153.12
2019-02-21T21:35:31.907Z,146.85
2019-02-21T21:37:58.512Z,151.55
2019-02-21T21:40:25.126Z,154.65
2019-02-21T21:42:51.837Z,148.65
2019-02-21T21:45:18.467Z,145.92
2019-02-21T21:47:45.055Z,269.73
2019-02-21T21:50:13.435Z,256.45
2019-02-21T21:52:40.128Z,262.77
2019-02-21T21:55:06.813Z,309.67
2019-02-21T21:57:33.529Z,320.73
2019-02-21T22:00:00.349Z,327.45
2019-02-21T22:02:27.153Z,320.65
2019-02-21T22:04:53.888Z,274.32
2019-02-21T22:07:20.611Z,276.52
2019-02-21T22:09:47.332Z,281.50
2019-02-21T22:12:14.032Z,237.27
2019-02-21T22:14:40.631Z,213.82
2019-02-21T22:17:07.456Z,188.50
2019-02-21T22:19:34.091Z,189.62
2019-02-21T22:22:00.785Z,183.07
2019-02-21T22:24:27.497Z,181.57
2019-02-21T22:26:54.100Z,169.28
2019-02-21T22:29:20.796Z,164.52
2019-02-21T22:31:47.539Z,165.52
2019-02-21T22:34:14.156Z,153.70
2019-02-21T22:36:40.780Z,157.82
2019-02-21T22:39:15.915Z,147.35
2019-02-21T22:41:36.134Z,144.93
2019-02-21T22:44:02.760Z,147.72
2019-02-21T22:46:29.465Z,145.40
2019-02-21T22:48:56.051Z,147.02
2019-02-21T22:51:22.728Z,150.38
2019-02-21T22:53:49.408Z,153.97
2019-02-21T22:56:16.124Z,155.87
2019-02-21T22:58:45.326Z,145.47
2019-02-21T23:01:16.151Z,141.15
2019-02-21T23:03:48.128Z,140.32
2019-02-21T23:06:26.859Z,145.60
2019-02-21T23:08:53.516Z,137.03
2019-02-21T23:11:20.808Z,143.80
2019-02-21T23:13:47.623Z,163.55
2019-02-21T23:16:14.370Z,147.30
2019-02-21T23:18:40.979Z,141.97
2019-02-21T23:21:07.689Z,147.53
2019-02-21T23:23:34.378Z,146.50
2019-02-21T23:26:02.106Z,153.82
2019-02-21T23:28:29.896Z,153.20
2019-02-21T23:30:56.614Z,151.55
2019-02-21T23:33:24.413Z,152.30
2019-02-21T23:35:51.091Z,146.43
2019-02-21T23:38:17.798Z,152.27
2019-02-21T23:40:44.417Z,145.55
2019-02-21T23:43:11.138Z,149.27
2019-02-21T23:45:37.832Z,147.47
2019-02-21T23:48:04.466Z,150.62
2019-02-21T23:50:31.125Z,157.82
2019-02-21T23:52:57.842Z,161.55
2019-02-21T23:55:24.432Z,160.88
2019-02-21T23:57:51.112Z,171.15
